Time;durP1;ratioP1;P1;durP2;ratioP2;P2;SDS_P1;SDS_P2;PMS_P1;PMS_P2;Temp;Humidity;BMP_temperature;BMP_pressure;BME280_temperature;BME280_humidity;BME280_pressure;Samples;Min_cycle;Max_cycle;Signal;HPM_P1;HPM_P2
2021/06/20 00:00:32;;;;;;;59.75;37.10;;;;;;;16.33;100.00;100647.53;3610443;39;20079;-63
2021/06/20 00:02:59;;;;;;;58.17;34.17;;;;;;;16.38;100.00;100617.94;3611669;39;20043;-65
2021/06/20 00:05:30;;;;;;;63.17;35.83;;;;;;;16.36;100.00;100611.88;3611560;39;20052;-63
2021/06/20 00:07:58;;;;;;;66.07;37.70;;;;;;;16.41;100.00;100612.16;3611382;39;20047;-65
2021/06/20 00:10:28;;;;;;;60.08;37.92;;;;;;;16.48;100.00;100611.47;3611179;39;20073;-64
2021/06/20 00:12:57;;;;;;;64.40;39.13;;;;;;;16.44;100.00;100610.94;3612090;39;20055;-67
2021/06/20 00:15:25;;;;;;;56.58;35.85;;;;;;;16.46;100.00;100609.75;3610975;39;20476;-64
2021/06/20 00:17:52;;;;;;;55.97;34.37;;;;;;;16.52;100.00;100610.03;3610502;39;20052;-63
2021/06/20 00:20:21;;;;;;;60.13;37.28;;;;;;;16.49;100.00;100604.97;3609701;39;20040;-63
2021/06/20 00:22:48;;;;;;;60.47;35.85;;;;;;;16.53;100.00;100612.56;3612315;39;20063;-63
2021/06/20 00:25:15;;;;;;;55.15;36.47;;;;;;;16.55;100.00;100604.25;3610862;39;20337;-63
2021/06/20 00:27:44;;;;;;;53.92;33.90;;;;;;;16.57;100.00;100602.22;3612055;39;20321;-66
2021/06/20 00:30:13;;;;;;;55.50;35.60;;;;;;;16.64;100.00;100600.44;3610869;39;20073;-63
2021/06/20 00:32:40;;;;;;;59.00;36.80;;;;;;;16.66;100.00;100606.53;3611375;39;20044;-64
2021/06/20 00:35:08;;;;;;;60.67;36.70;;;;;;;16.62;100.00;100605.22;3611563;39;20375;-63
2021/06/20 00:37:34;;;;;;;52.38;34.15;;;;;;;16.61;100.00;100587.25;3612340;39;20075;-63
2021/06/20 00:40:01;;;;;;;57.25;36.90;;;;;;;16.64;100.00;100581.44;3611779;39;20053;-63
2021/06/20 00:42:27;;;;;;;58.75;36.05;;;;;;;16.66;100.00;100584.81;3611250;39;20043;-63
2021/06/20 00:44:55;;;;;;;50.13;34.72;;;;;;;16.70;100.00;100590.72;3609754;39;20079;-63
2021/06/20 00:47:21;;;;;;;47.97;32.45;;;;;;;16.65;100.00;100588.53;3610099;39;20052;-61
2021/06/20 00:49:48;;;;;;;53.78;34.47;;;;;;;16.76;100.00;100601.69;3611706;39;20052;-65
2021/06/20 00:52:15;;;;;;;54.13;34.90;;;;;;;16.69;100.00;100598.03;3610727;39;20058;-66
2021/06/20 00:54:47;;;;;;;53.05;34.85;;;;;;;16.75;100.00;100591.84;3612088;39;20064;-63
2021/06/20 00:57:14;;;;;;;45.88;32.75;;;;;;;16.80;100.00;100597.59;3611173;39;20053;-63
2021/06/20 00:59:41;;;;;;;53.00;33.72;;;;;;;16.76;100.00;100590.81;3610854;39;20069;-63
2021/06/20 01:02:08;;;;;;;51.08;34.72;;;;;;;16.82;100.00;100587.38;3611302;39;20060;-63
2021/06/20 01:04:35;;;;;;;50.60;34.00;;;;;;;16.88;100.00;100587.72;3609090;39;20409;-63
2021/06/20 01:07:01;;;;;;;49.92;35.05;;;;;;;16.96;100.00;100609.34;3610778;39;20043;-64
2021/06/20 01:09:28;;;;;;;47.30;32.83;;;;;;;17.06;100.00;100595.50;3611395;39;20023;-64
2021/06/20 01:11:54;;;;;;;48.22;33.10;;;;;;;17.05;100.00;100594.69;3612063;39;20043;-64
2021/06/20 01:14:21;;;;;;;51.90;35.05;;;;;;;17.08;100.00;100590.75;3610804;39;20426;-63
2021/06/20 01:16:47;;;;;;;45.33;32.38;;;;;;;17.06;100.00;100590.91;3611314;39;20051;-64
2021/06/20 01:19:16;;;;;;;45.17;31.80;;;;;;;17.05;100.00;100597.41;3611376;39;20053;-65
2021/06/20 01:21:44;;;;;;;48.17;32.60;;;;;;;17.12;100.00;100592.03;3611326;39;20038;-63
2021/06/20 01:24:12;;;;;;;57.65;36.30;;;;;;;17.09;100.00;100578.81;3611514;39;20036;-64
2021/06/20 01:26:39;;;;;;;68.45;37.20;;;;;;;17.12;100.00;100571.16;3611823;39;20054;-64
2021/06/20 01:29:07;;;;;;;54.50;35.00;;;;;;;17.10;100.00;100565.03;3611003;39;20055;-64
2021/06/20 01:31:35;;;;;;;51.13;35.33;;;;;;;17.11;100.00;100558.59;3611568;39;20329;-64
2021/06/20 01:34:03;;;;;;;51.28;35.13;;;;;;;17.18;100.00;100566.81;3611254;39;20405;-63
2021/06/20 01:36:30;;;;;;;50.92;34.58;;;;;;;17.10;100.00;100570.47;3611465;39;20057;-65
2021/06/20 01:38:57;;;;;;;52.08;36.47;;;;;;;16.98;100.00;100567.38;3611412;39;20051;-65
2021/06/20 01:41:25;;;;;;;51.92;34.45;;;;;;;17.04;100.00;100549.47;3610360;39;20054;-63
2021/06/20 01:43:51;;;;;;;55.72;37.15;;;;;;;17.12;100.00;100533.09;3611407;39;20063;-63
2021/06/20 01:46:18;;;;;;;47.65;34.88;;;;;;;17.19;100.00;100527.72;3611088;39;20046;-63
2021/06/20 01:48:45;;;;;;;53.72;33.97;;;;;;;17.12;100.00;100524.94;3610886;39;20075;-66
2021/06/20 01:51:11;;;;;;;47.67;33.67;;;;;;;17.06;100.00;100533.81;3610274;39;20289;-65
2021/06/20 01:53:38;;;;;;;46.25;33.78;;;;;;;17.02;100.00;100539.81;3610441;39;20059;-66
2021/06/20 01:56:05;;;;;;;51.45;36.17;;;;;;;17.11;100.00;100530.56;3609544;39;20325;-66
2021/06/20 01:58:33;;;;;;;57.80;35.30;;;;;;;17.11;100.00;100515.06;3610276;39;20401;-63
2021/06/20 02:01:01;;;;;;;64.38;36.03;;;;;;;17.16;100.00;100519.94;3610525;39;20124;-64
2021/06/20 02:03:28;;;;;;;57.10;36.07;;;;;;;17.07;100.00;100513.75;3610483;39;20046;-63
2021/06/20 02:05:58;;;;;;;49.65;33.70;;;;;;;17.12;100.00;100534.94;3610951;39;20394;-63
2021/06/20 02:08:24;;;;;;;54.20;36.03;;;;;;;17.10;100.00;100537.00;3610123;39;20041;-65
2021/06/20 02:10:52;;;;;;;53.95;37.08;;;;;;;17.13;100.00;100520.31;3611072;39;20065;-62
2021/06/20 02:13:19;;;;;;;55.10;37.00;;;;;;;17.16;100.00;100514.50;3610934;39;20049;-66
2021/06/20 02:15:47;;;;;;;53.97;35.85;;;;;;;17.26;100.00;100487.88;3609877;39;20503;-65
2021/06/20 02:18:14;;;;;;;54.35;37.05;;;;;;;17.27;100.00;100483.25;3608345;39;20051;-65
2021/06/20 02:20:41;;;;;;;53.35;37.30;;;;;;;17.23;100.00;100498.28;3610410;39;20088;-66
2021/06/20 02:23:07;;;;;;;54.75;37.08;;;;;;;17.19;100.00;100514.13;3609349;39;20061;-66
2021/06/20 02:25:35;;;;;;;50.90;35.38;;;;;;;17.26;100.00;100508.78;3610600;39;20054;-63
2021/06/20 02:28:02;;;;;;;53.55;35.95;;;;;;;17.28;100.00;100517.59;3610722;39;20402;-66
2021/06/20 02:30:29;;;;;;;58.03;39.17;;;;;;;17.10;100.00;100512.53;3609736;39;20036;-63
2021/06/20 02:32:57;;;;;;;57.45;36.22;;;;;;;17.11;100.00;100506.09;3610950;39;20048;-63
2021/06/20 02:35:25;;;;;;;63.38;39.25;;;;;;;17.15;100.00;100491.91;3610057;39;20060;-66
2021/06/20 02:37:53;;;;;;;48.65;35.03;;;;;;;17.26;100.00;100470.72;3610792;39;20103;-63
2021/06/20 02:40:19;;;;;;;50.38;35.35;;;;;;;17.20;100.00;100441.56;3610207;39;20059;-63
2021/06/20 02:42:47;;;;;;;51.80;36.67;;;;;;;17.14;100.00;100432.28;3609758;39;20080;-65
2021/06/20 02:45:19;;;;;;;55.28;37.67;;;;;;;17.14;100.00;100427.69;3610331;39;20077;-65
2021/06/20 02:47:46;;;;;;;53.17;38.58;;;;;;;17.14;100.00;100441.28;3607949;39;20072;-63
2021/06/20 02:50:15;;;;;;;52.47;37.45;;;;;;;17.21;100.00;100446.81;3611138;39;20433;-64
2021/06/20 02:52:42;;;;;;;51.53;37.05;;;;;;;17.18;100.00;100463.47;3611874;39;20051;-63
2021/06/20 02:55:09;;;;;;;52.30;37.03;;;;;;;17.29;100.00;100463.00;3611291;39;20409;-64
2021/06/20 02:57:35;;;;;;;51.92;35.53;;;;;;;17.31;100.00;100474.56;3611222;39;20051;-65
2021/06/20 03:00:04;;;;;;;51.35;35.65;;;;;;;17.25;100.00;100477.19;3611700;39;20091;-64
2021/06/20 03:02:31;;;;;;;53.88;37.05;;;;;;;17.27;100.00;100478.69;3610885;39;20047;-63
2021/06/20 03:04:58;;;;;;;51.47;36.08;;;;;;;17.15;100.00;100474.75;3612144;39;20049;-63
2021/06/20 03:07:26;;;;;;;61.97;37.10;;;;;;;17.13;100.00;100474.94;3611270;39;20055;-64
2021/06/20 03:09:52;;;;;;;61.15;40.05;;;;;;;17.29;100.00;100471.16;3611654;39;20060;-67
2021/06/20 03:12:19;;;;;;;50.58;35.50;;;;;;;17.24;100.00;100467.31;3611183;39;20042;-63
2021/06/20 03:14:47;;;;;;;61.63;38.88;;;;;;;17.16;100.00;100460.13;3611629;39;20044;-65
2021/06/20 03:17:14;;;;;;;56.72;37.33;;;;;;;17.04;100.00;100464.34;3610972;39;20409;-67
2021/06/20 03:19:42;;;;;;;56.47;39.17;;;;;;;17.22;100.00;100450.38;3607669;39;20052;-63
2021/06/20 03:22:09;;;;;;;66.55;41.05;;;;;;;17.14;100.00;100457.59;3609715;39;20419;-66
2021/06/20 03:24:39;;;;;;;71.57;40.33;;;;;;;17.01;100.00;100483.78;3611762;39;20035;-65
2021/06/20 03:27:06;;;;;;;62.05;41.65;;;;;;;17.01;100.00;100490.03;3611307;39;20035;-64
2021/06/20 03:29:32;;;;;;;73.72;43.42;;;;;;;17.03;100.00;100476.25;3611758;39;20054;-67
2021/06/20 03:31:59;;;;;;;79.47;44.70;;;;;;;17.06;100.00;100457.69;3608994;39;20056;-65
2021/06/20 03:34:25;;;;;;;72.10;43.78;;;;;;;17.19;100.00;100464.34;3594921;39;20413;-63
2021/06/20 03:36:52;;;;;;;70.32;43.65;;;;;;;17.12;100.00;100458.81;3611139;39;20050;-64
2021/06/20 03:39:18;;;;;;;71.97;42.63;;;;;;;17.06;100.00;100479.44;3610549;39;20059;-64
2021/06/20 03:41:46;;;;;;;60.92;36.58;;;;;;;17.05;100.00;100480.47;3611032;39;20040;-64
2021/06/20 03:44:13;;;;;;;50.10;32.35;;;;;;;17.12;100.00;100497.75;3610643;39;20064;-65
2021/06/20 03:46:39;;;;;;;44.38;29.95;;;;;;;17.11;100.00;100501.47;3612009;39;20088;-64
2021/06/20 03:49:06;;;;;;;41.50;28.70;;;;;;;17.04;100.00;100510.59;3611281;39;20060;-63
2021/06/20 03:51:33;;;;;;;45.10;30.33;;;;;;;16.98;100.00;100507.56;3612170;39;20050;-66
2021/06/20 03:53:59;;;;;;;37.97;27.40;;;;;;;16.96;100.00;100497.91;3611448;39;20057;-63
2021/06/20 03:56:26;;;;;;;38.40;26.33;;;;;;;17.00;100.00;100496.50;3611888;39;20042;-63
2021/06/20 03:58:54;;;;;;;35.35;24.92;;;;;;;17.05;100.00;100507.66;3612009;39;20048;-66
2021/06/20 04:01:21;;;;;;;39.92;27.27;;;;;;;17.13;100.00;100504.84;3610057;39;20060;-64
2021/06/20 04:03:47;;;;;;;40.28;27.45;;;;;;;17.12;100.00;100495.00;3611099;39;20040;-63
2021/06/20 04:06:14;;;;;;;39.55;27.23;;;;;;;16.93;100.00;100501.00;3611677;39;20051;-65
2021/06/20 04:08:40;;;;;;;41.83;27.52;;;;;;;16.93;100.00;100492.84;3611131;39;20039;-63
2021/06/20 04:11:07;;;;;;;43.00;26.75;;;;;;;16.89;100.00;100496.97;3611282;39;20078;-64
2021/06/20 04:13:33;;;;;;;45.97;28.30;;;;;;;16.89;100.00;100491.56;3610182;39;20055;-63
2021/06/20 04:16:02;;;;;;;46.60;29.17;;;;;;;16.84;100.00;100496.66;3611484;39;20560;-63
2021/06/20 04:18:28;;;;;;;46.42;31.48;;;;;;;16.86;100.00;100491.84;3610907;39;20043;-63
2021/06/20 04:20:55;;;;;;;43.05;29.50;;;;;;;16.94;100.00;100500.81;3611937;39;20051;-63
2021/06/20 04:23:21;;;;;;;42.17;27.48;;;;;;;16.92;100.00;100496.59;3610238;39;20053;-63
2021/06/20 04:25:48;;;;;;;37.75;24.88;;;;;;;16.92;100.00;100496.59;3611803;39;20047;-63
2021/06/20 04:28:16;;;;;;;42.03;26.55;;;;;;;16.86;100.00;100494.59;3609746;39;20099;-63
2021/06/20 04:30:42;;;;;;;48.10;29.73;;;;;;;16.77;100.00;100502.84;3611085;39;20332;-63
2021/06/20 04:33:10;;;;;;;43.53;28.17;;;;;;;16.85;100.00;100507.34;3600932;39;20406;-62
2021/06/20 04:35:37;;;;;;;45.30;25.83;;;;;;;16.77;100.00;100510.16;3610776;39;20043;-64
2021/06/20 04:38:04;;;;;;;45.17;26.88;;;;;;;16.83;100.00;100520.28;3610382;39;20039;-63
2021/06/20 04:40:33;;;;;;;44.72;26.15;;;;;;;16.86;100.00;100532.63;3610145;39;20123;-62
2021/06/20 04:43:05;;;;;;;;;;;;;;;16.97;100.00;100549.41;3611725;39;20078;-62
2021/06/20 04:45:32;;;;;;;37.58;22.75;;;;;;;16.98;100.00;100544.78;3610965;39;20235;-63
2021/06/20 04:47:58;;;;;;;32.42;18.90;;;;;;;16.94;100.00;100552.47;3609193;39;20052;-63
2021/06/20 04:50:27;;;;;;;22.38;15.77;;;;;;;16.88;100.00;100555.09;3610160;39;20972;-64
2021/06/20 04:52:54;;;;;;;19.05;13.30;;;;;;;17.07;100.00;100557.25;3611167;39;20055;-62
2021/06/20 04:55:20;;;;;;;19.98;12.65;;;;;;;17.11;100.00;100558.59;3610136;39;20286;-62
2021/06/20 04:57:46;;;;;;;17.08;10.02;;;;;;;17.07;100.00;100556.44;3610674;39;20049;-64
2021/06/20 05:00:15;;;;;;;13.13;9.15;;;;;;;17.22;100.00;100565.41;3610066;39;20295;-63
2021/06/20 05:02:41;;;;;;;12.10;8.18;;;;;;;17.21;100.00;100571.06;3612141;39;20042;-62
2021/06/20 05:05:09;;;;;;;12.18;7.75;;;;;;;17.16;100.00;100575.16;3610164;39;20031;-62
2021/06/20 05:07:37;;;;;;;10.20;7.07;;;;;;;17.22;100.00;100572.75;3610932;39;20051;-63
2021/06/20 05:10:05;;;;;;;11.43;7.15;;;;;;;17.22;100.00;100572.75;3609882;39;20055;-63
2021/06/20 05:12:31;;;;;;;9.55;7.18;;;;;;;17.15;100.00;100573.50;3611083;39;20301;-63
2021/06/20 05:14:58;;;;;;;11.15;7.80;;;;;;;17.27;100.00;100578.47;3610887;39;20300;-63
2021/06/20 05:17:24;;;;;;;10.93;7.15;;;;;;;17.26;100.00;100569.47;3608904;39;20512;-62
2021/06/20 05:19:51;;;;;;;10.48;6.72;;;;;;;17.27;100.00;100581.19;3610764;39;20036;-62
2021/06/20 05:22:19;;;;;;;8.27;6.50;;;;;;;17.38;100.00;100583.44;3606207;39;20421;-63
2021/06/20 05:24:47;;;;;;;8.45;6.45;;;;;;;17.32;100.00;100579.59;3610972;39;20127;-63
2021/06/20 05:27:14;;;;;;;9.07;6.90;;;;;;;17.52;100.00;100574.44;3610517;39;20136;-63
2021/06/20 05:29:41;;;;;;;8.35;5.80;;;;;;;17.52;100.00;100569.00;3611338;39;20045;-62
2021/06/20 05:32:08;;;;;;;8.45;5.95;;;;;;;17.58;100.00;100561.09;3608987;39;20057;-62
2021/06/20 05:34:34;;;;;;;7.38;6.00;;;;;;;17.73;100.00;100564.66;3610225;39;20383;-63
2021/06/20 05:37:01;;;;;;;8.65;5.72;;;;;;;17.73;100.00;100567.38;3606155;39;20044;-62
2021/06/20 05:39:28;;;;;;;7.00;5.60;;;;;;;17.86;100.00;100564.81;3610944;39;20049;-62
2021/06/20 05:41:55;;;;;;;6.93;4.88;;;;;;;17.92;100.00;100567.81;3610150;39;20035;-62
2021/06/20 05:44:22;;;;;;;9.13;5.90;;;;;;;17.98;100.00;100576.06;3609580;39;20062;-62
2021/06/20 05:46:48;;;;;;;8.07;5.40;;;;;;;17.86;100.00;100574.88;3610637;39;20494;-62
2021/06/20 05:49:15;;;;;;;6.95;5.25;;;;;;;18.09;100.00;100582.88;3609551;39;20058;-62
2021/06/20 05:51:42;;;;;;;6.03;4.68;;;;;;;17.99;100.00;100580.50;3609468;39;20062;-62
2021/06/20 05:54:08;;;;;;;6.78;4.70;;;;;;;18.24;100.00;100580.16;3609389;39;20055;-62
2021/06/20 05:56:35;;;;;;;7.47;4.60;;;;;;;18.00;100.00;100587.59;3611379;39;20287;-62
2021/06/20 05:59:03;;;;;;;6.75;4.97;;;;;;;17.99;100.00;100595.97;3610072;39;20052;-62
2021/06/20 06:01:30;;;;;;;8.13;5.05;;;;;;;17.63;100.00;100605.75;3609306;39;20556;-62
2021/06/20 06:03:57;;;;;;;7.55;4.70;;;;;;;17.62;100.00;100603.22;3610382;39;20054;-62
2021/06/20 06:06:23;;;;;;;5.78;4.75;;;;;;;17.46;100.00;100612.41;3605560;39;20051;-62
2021/06/20 06:08:49;;;;;;;6.97;4.88;;;;;;;17.37;100.00;100608.94;3609987;39;20301;-62
2021/06/20 06:11:16;;;;;;;6.40;5.38;;;;;;;17.46;100.00;100606.97;3610093;39;20091;-62
2021/06/20 06:13:42;;;;;;;6.85;5.72;;;;;;;17.47;100.00;100608.69;3609354;39;20424;-62
2021/06/20 06:16:10;;;;;;;6.40;5.25;;;;;;;17.49;100.00;100629.22;3609165;39;20043;-63
2021/06/20 06:18:37;;;;;;;8.43;5.63;;;;;;;17.33;100.00;100629.41;3610830;39;20091;-63
2021/06/20 06:21:03;;;;;;;7.30;5.78;;;;;;;17.31;100.00;100634.19;3611125;39;20062;-63
2021/06/20 06:23:30;;;;;;;9.68;6.00;;;;;;;17.40;100.00;100635.81;3612107;39;20481;-62
2021/06/20 06:25:56;;;;;;;10.65;6.15;;;;;;;17.26;100.00;100639.34;3612127;39;20039;-62
2021/06/20 06:28:23;;;;;;;7.63;5.70;;;;;;;17.15;100.00;100637.91;3610690;39;20054;-62
2021/06/20 06:30:49;;;;;;;9.55;6.32;;;;;;;17.05;100.00;100642.75;3610885;39;20052;-61
2021/06/20 06:33:17;;;;;;;8.32;6.55;;;;;;;17.08;100.00;100635.09;3611605;39;20027;-62
2021/06/20 06:35:43;;;;;;;8.05;6.78;;;;;;;17.09;100.00;100649.53;3611564;39;20046;-62
2021/06/20 06:38:10;;;;;;;6.78;5.57;;;;;;;17.12;100.00;100655.47;3610784;39;20049;-64
2021/06/20 06:40:36;;;;;;;7.30;4.97;;;;;;;17.13;100.00;100661.72;3610141;39;20046;-64
2021/06/20 06:43:03;;;;;;;7.93;5.55;;;;;;;17.09;100.00;100668.56;3611184;39;20083;-62
2021/06/20 06:45:29;;;;;;;7.85;6.15;;;;;;;17.08;100.00;100675.06;3611751;39;20132;-61
2021/06/20 06:47:56;;;;;;;6.85;5.28;;;;;;;17.06;100.00;100675.19;3611182;39;20059;-63
2021/06/20 06:50:24;;;;;;;6.70;5.82;;;;;;;16.90;100.00;100667.19;3610390;39;20067;-63
2021/06/20 06:52:50;;;;;;;6.78;5.65;;;;;;;17.05;100.00;100661.78;3610606;39;20071;-63
2021/06/20 06:55:17;;;;;;;6.72;5.63;;;;;;;17.05;100.00;100669.94;3611230;39;20416;-63
2021/06/20 06:57:44;;;;;;;7.75;5.40;;;;;;;17.17;100.00;100682.09;3611923;39;20074;-62
2021/06/20 07:00:12;;;;;;;7.55;5.68;;;;;;;17.26;100.00;100683.69;3609788;39;20036;-64
2021/06/20 07:02:39;;;;;;;7.53;5.63;;;;;;;17.14;100.00;100683.31;3611821;39;20058;-62
2021/06/20 07:05:06;;;;;;;6.25;5.05;;;;;;;17.25;100.00;100686.59;3611038;39;20525;-65
2021/06/20 07:07:34;;;;;;;5.90;4.68;;;;;;;17.20;100.00;100683.63;3610650;39;20279;-62
2021/06/20 07:10:01;;;;;;;6.20;5.43;;;;;;;17.21;100.00;100683.44;3612163;39;20053;-62
2021/06/20 07:12:28;;;;;;;6.70;5.97;;;;;;;17.47;100.00;100684.88;3610702;39;20395;-62
2021/06/20 07:14:55;;;;;;;7.07;5.20;;;;;;;17.46;100.00;100694.91;3609848;39;20058;-62
2021/06/20 07:17:21;;;;;;;8.23;5.60;;;;;;;17.39;100.00;100699.41;3609975;39;20103;-62
2021/06/20 07:19:48;;;;;;;6.57;5.38;;;;;;;17.64;100.00;100707.31;3611862;39;20043;-63
2021/06/20 07:22:15;;;;;;;8.00;5.63;;;;;;;17.50;100.00;100712.56;3609522;39;20059;-63
2021/06/20 07:24:43;;;;;;;7.10;5.75;;;;;;;17.57;100.00;100717.25;3611672;39;20035;-61
2021/06/20 07:27:11;;;;;;;6.63;5.95;;;;;;;17.55;100.00;100730.19;3610347;39;20147;-63
2021/06/20 07:29:37;;;;;;;8.35;5.82;;;;;;;17.48;100.00;100724.66;3611545;39;20058;-63
2021/06/20 07:32:05;;;;;;;7.22;5.72;;;;;;;17.72;100.00;100723.53;3610167;39;20289;-64
2021/06/20 07:34:31;;;;;;;7.85;5.80;;;;;;;17.61;100.00;100734.91;3610576;39;20087;-62
2021/06/20 07:36:57;;;;;;;6.03;5.43;;;;;;;17.72;100.00;100731.72;3609206;39;20046;-63
2021/06/20 07:39:24;;;;;;;7.32;5.38;;;;;;;17.58;100.00;100721.66;3611706;39;20078;-62
2021/06/20 07:41:52;;;;;;;5.95;5.35;;;;;;;17.75;100.00;100725.88;3610448;39;20059;-63
2021/06/20 07:44:19;;;;;;;6.78;5.70;;;;;;;17.82;100.00;100726.84;3611226;39;20062;-64
2021/06/20 07:46:45;;;;;;;7.38;5.47;;;;;;;17.69;100.00;100710.31;3611761;39;20043;-63
2021/06/20 07:49:11;;;;;;;7.03;6.32;;;;;;;17.71;100.00;100713.72;3610411;39;20054;-63
2021/06/20 07:51:38;;;;;;;6.75;5.63;;;;;;;17.84;100.00;100708.47;3611138;39;20073;-64
2021/06/20 07:54:05;;;;;;;8.85;4.85;;;;;;;17.88;100.00;100708.06;3610703;39;20356;-64
2021/06/20 07:56:31;;;;;;;5.78;5.18;;;;;;;18.19;100.00;100722.34;3610339;39;20055;-63
2021/06/20 07:58:59;;;;;;;5.28;4.78;;;;;;;18.18;100.00;100734.28;3611451;39;20326;-62
2021/06/20 08:01:26;;;;;;;5.35;4.85;;;;;;;17.86;100.00;100741.78;3610063;39;20039;-63
2021/06/20 08:03:53;;;;;;;5.07;4.57;;;;;;;17.79;100.00;100740.81;3612396;39;20039;-62
2021/06/20 08:06:19;;;;;;;5.95;5.10;;;;;;;17.74;100.00;100740.56;3610395;39;20062;-64
2021/06/20 08:08:46;;;;;;;5.70;5.18;;;;;;;17.90;100.00;100749.59;3611655;39;20059;-62
2021/06/20 08:11:12;;;;;;;6.70;5.25;;;;;;;17.90;100.00;100738.72;3610235;39;20342;-63
2021/06/20 08:13:39;;;;;;;6.10;4.80;;;;;;;18.02;100.00;100727.16;3610814;39;20035;-63
2021/06/20 08:16:07;;;;;;;4.97;4.47;;;;;;;18.53;100.00;100737.22;3611450;39;20072;-63
2021/06/20 08:18:34;;;;;;;6.65;4.07;;;;;;;18.41;100.00;100737.94;3610996;39;20393;-63
2021/06/20 08:21:01;;;;;;;4.38;3.97;;;;;;;18.71;100.00;100742.28;3611337;39;20035;-63
2021/06/20 08:23:27;;;;;;;4.20;3.80;;;;;;;18.73;100.00;100739.34;3609940;39;20055;-64
2021/06/20 08:25:53;;;;;;;4.38;3.90;;;;;;;18.45;100.00;100750.97;3611796;39;20057;-64
2021/06/20 08:28:22;;;;;;;4.60;4.20;;;;;;;18.50;100.00;100755.84;3610218;39;20088;-64
2021/06/20 08:30:49;;;;;;;5.75;4.43;;;;;;;18.39;100.00;100759.91;3609359;39;20032;-65
2021/06/20 08:33:17;;;;;;;5.32;4.82;;;;;;;18.64;100.00;100767.75;3610291;39;20097;-64
2021/06/20 08:35:43;;;;;;;5.57;4.78;;;;;;;18.85;100.00;100775.97;3611177;39;20039;-65
2021/06/20 08:38:09;;;;;;;5.78;4.97;;;;;;;18.21;100.00;100758.44;3611339;39;20059;-64
2021/06/20 08:40:36;;;;;;;5.53;5.00;;;;;;;18.62;100.00;100776.13;3608773;39;20054;-64
2021/06/20 08:43:02;;;;;;;5.88;4.60;;;;;;;18.48;100.00;100779.72;3610580;39;20091;-65
2021/06/20 08:45:29;;;;;;;5.97;5.38;;;;;;;18.50;100.00;100773.03;3610883;39;20418;-64
2021/06/20 08:47:56;;;;;;;5.25;4.85;;;;;;;18.62;100.00;100787.00;3611738;39;20046;-64
2021/06/20 08:50:24;;;;;;;6.13;5.63;;;;;;;18.59;100.00;100786.56;3609710;39;20071;-65
2021/06/20 08:52:54;;;;;;;7.38;5.22;;;;;;;18.83;100.00;100777.19;3609728;39;20055;-65
2021/06/20 08:55:20;;;;;;;5.15;4.60;;;;;;;19.29;100.00;100776.00;3611028;39;20063;-65
2021/06/20 08:57:48;;;;;;;4.82;4.43;;;;;;;19.33;100.00;100771.84;3608041;39;20063;-64
2021/06/20 09:00:16;;;;;;;5.07;4.68;;;;;;;19.44;100.00;100776.78;3610020;39;20516;-65
2021/06/20 09:02:44;;;;;;;4.70;4.30;;;;;;;19.06;100.00;100793.44;3610676;39;20046;-63
2021/06/20 09:05:14;;;;;;;4.75;4.40;;;;;;;19.06;100.00;100791.53;3607412;39;20037;-63
2021/06/20 09:07:44;;;;;;;4.97;4.57;;;;;;;19.42;100.00;100792.53;3599911;39;20369;-64
2021/06/20 09:10:17;;;;;;;5.07;4.57;;;;;;;19.63;100.00;100799.84;3591392;39;20059;-63
2021/06/20 09:12:46;;;;;;;5.30;4.80;;;;;;;19.10;100.00;100800.19;3607542;39;20054;-64
2021/06/20 09:15:14;;;;;;;6.78;6.15;;;;;;;18.94;100.00;100808.63;3611070;39;20035;-64
2021/06/20 09:17:41;;;;;;;7.43;6.53;;;;;;;19.08;100.00;100810.47;3610139;39;20051;-63
2021/06/20 09:20:08;;;;;;;7.10;6.50;;;;;;;19.19;100.00;100818.13;3609962;39;20052;-64
2021/06/20 09:22:36;;;;;;;7.90;7.28;;;;;;;19.29;100.00;100830.59;3611504;39;20047;-64
2021/06/20 09:25:06;;;;;;;7.97;7.30;;;;;;;19.20;100.00;100825.28;3610149;39;20422;-64
2021/06/20 09:27:36;;;;;;;7.78;7.07;;;;;;;19.48;100.00;100819.03;3611782;39;20144;-64
2021/06/20 09:30:11;;;;;;;8.70;7.93;;;;;;;19.90;100.00;100822.75;3610358;39;20062;-64
2021/06/20 09:32:40;;;;;;;8.23;7.53;;;;;;;19.88;100.00;100824.03;3610586;39;20067;-66
2021/06/20 09:35:08;;;;;;;9.73;8.82;;;;;;;19.79;100.00;100826.06;3609892;39;20055;-63
2021/06/20 09:37:35;;;;;;;9.43;8.65;;;;;;;19.84;100.00;100829.03;3609323;39;20077;-63
2021/06/20 09:40:15;;;;;;;7.93;7.22;;;;;;;19.80;100.00;100841.38;3610397;39;20039;-66
2021/06/20 09:42:42;;;;;;;8.30;7.70;;;;;;;20.24;100.00;100832.06;3608043;39;20058;-65
2021/06/20 09:45:10;;;;;;;8.30;7.60;;;;;;;20.00;100.00;100832.50;3609821;39;20083;-65
2021/06/20 09:47:41;;;;;;;9.70;8.90;;;;;;;20.35;100.00;100827.06;3610737;39;20036;-67
2021/06/20 09:50:09;;;;;;;7.90;7.20;;;;;;;21.07;100.00;100828.44;3609859;39;20047;-69
2021/06/20 09:52:37;;;;;;;7.88;7.18;;;;;;;20.70;100.00;100827.03;3612160;39;20398;-63
2021/06/20 09:55:10;;;;;;;7.50;6.90;;;;;;;20.78;100.00;100819.50;3612297;39;20492;-65
2021/06/20 09:57:43;;;;;;;7.05;6.45;;;;;;;20.62;100.00;100820.66;3612842;39;20050;-63
2021/06/20 10:00:10;;;;;;;7.20;6.60;;;;;;;21.02;100.00;100819.16;3611939;39;20051;-64
2021/06/20 10:02:39;;;;;;;6.43;5.70;;;;;;;21.53;100.00;100814.00;3612197;39;20047;-63
2021/06/20 10:05:06;;;;;;;6.20;5.68;;;;;;;21.42;100.00;100813.75;3611232;39;20035;-64
2021/06/20 10:07:33;;;;;;;5.50;5.10;;;;;;;21.79;100.00;100804.13;3612673;39;20047;-63
2021/06/20 10:10:01;;;;;;;5.40;5.00;;;;;;;22.44;100.00;100810.75;3612072;39;20057;-65
2021/06/20 10:12:29;;;;;;;5.50;5.00;;;;;;;22.22;100.00;100808.28;3609806;39;20044;-64
2021/06/20 10:14:59;;;;;;;4.95;4.60;;;;;;;21.97;100.00;100814.41;3611374;39;20087;-64
2021/06/20 10:17:30;;;;;;;5.65;5.15;;;;;;;21.21;100.00;100823.84;3610494;39;20076;-63
2021/06/20 10:19:59;;;;;;;5.95;5.45;;;;;;;20.91;100.00;100818.72;3610093;39;20051;-64
2021/06/20 10:22:35;;;;;;;6.43;5.82;;;;;;;20.81;100.00;100824.56;3610762;39;20057;-64
2021/06/20 10:27:37;;;;;;;6.28;5.78;;;;;;;21.48;100.00;100815.66;3551915;22;20147;-64
2021/06/20 10:30:47;;;;;;;6.38;5.78;;;;;;;21.58;100.00;100821.59;3584906;40;20134;-63
2021/06/20 10:33:18;;;;;;;6.97;6.47;;;;;;;21.76;100.00;100825.59;3582381;40;20056;-63
2021/06/20 10:35:57;;;;;;;7.05;6.45;;;;;;;21.98;100.00;100821.59;3581434;40;20051;-64
2021/06/20 10:38:33;;;;;;;6.20;5.70;;;;;;;23.01;100.00;100828.25;3637050;22;20065;-65
2021/06/20 10:40:59;;;;;;;6.50;5.90;;;;;;;22.58;100.00;100828.84;3599877;39;20449;-65
2021/06/20 10:43:26;;;;;;;5.75;5.25;;;;;;;22.63;100.00;100834.53;3601970;39;20048;-64
2021/06/20 10:45:52;;;;;;;6.05;5.45;;;;;;;22.22;100.00;100833.78;3601012;39;20050;-64
2021/06/20 10:48:22;;;;;;;8.13;7.43;;;;;;;21.51;100.00;100829.00;3601183;39;20048;-65
2021/06/20 10:50:50;;;;;;;7.10;6.50;;;;;;;22.04;100.00;100831.69;3602188;39;20391;-64
2021/06/20 10:53:17;;;;;;;5.28;4.88;;;;;;;22.12;100.00;100824.31;3601211;39;20032;-64
2021/06/20 10:55:47;;;;;;;5.28;4.70;;;;;;;22.08;100.00;100832.09;3601218;39;20039;-64
2021/06/20 10:58:19;;;;;;;4.95;4.50;;;;;;;21.93;100.00;100837.00;3600242;39;20398;-64
2021/06/20 11:00:46;;;;;;;5.22;4.68;;;;;;;21.93;100.00;100837.81;3601812;39;20059;-64
2021/06/20 11:03:15;;;;;;;6.03;5.43;;;;;;;21.94;100.00;100836.78;3601666;39;20247;-65
2021/06/20 11:05:48;;;;;;;5.72;5.32;;;;;;;22.00;100.00;100837.81;3601730;39;20080;-65
2021/06/20 11:08:26;;;;;;;5.53;5.03;;;;;;;22.44;100.00;100832.69;3600972;39;20065;-62
2021/06/20 11:11:04;;;;;;;4.80;4.40;;;;;;;22.42;100.00;100832.06;3601755;39;20063;-62
2021/06/20 11:13:31;;;;;;;5.65;5.05;;;;;;;22.65;100.00;100829.69;3600986;39;20527;-61